createdAt,value
2022-09-29T00:01:04.190Z,11.80
2022-09-29T00:03:31.287Z,11.80
2022-09-29T00:05:58.311Z,11.80
2022-09-29T00:08:28.318Z,11.80
2022-09-29T00:10:55.331Z,11.80
2022-09-29T00:13:22.772Z,11.80
2022-09-29T00:16:00.338Z,11.80
2022-09-29T00:18:28.349Z,11.80
2022-09-29T00:21:16.112Z,11.80
2022-09-29T00:23:43.300Z,11.80
2022-09-29T00:26:16.080Z,11.80
2022-09-29T00:28:53.894Z,11.80
2022-09-29T00:31:21.563Z,11.90
2022-09-29T00:33:48.619Z,11.80
2022-09-29T00:36:17.551Z,11.80
2022-09-29T00:38:47.317Z,11.80
2022-09-29T00:41:26.632Z,11.80
2022-09-29T00:44:14.018Z,11.80
2022-09-29T00:46:53.189Z,11.80
2022-09-29T00:49:24.262Z,11.80
2022-09-29T00:52:02.064Z,11.70
2022-09-29T00:54:33.282Z,11.70
2022-09-29T00:57:02.920Z,11.70
2022-09-29T00:59:40.260Z,11.80
2022-09-29T01:02:07.266Z,11.80
2022-09-29T01:04:34.448Z,11.80
2022-09-29T01:07:01.911Z,11.80
2022-09-29T01:09:40.494Z,11.80
2022-09-29T01:12:07.861Z,11.70
2022-09-29T01:14:37.175Z,11.70
2022-09-29T01:17:05.372Z,11.60
2022-09-29T01:20:13.345Z,11.60
2022-09-29T01:22:58.641Z,11.70
2022-09-29T01:25:43.806Z,11.70
2022-09-29T01:28:33.924Z,11.70
2022-09-29T01:31:25.079Z,11.70
2022-09-29T01:33:51.975Z,11.70
2022-09-29T01:36:51.662Z,11.80
2022-09-29T01:39:31.267Z,11.80
2022-09-29T01:42:13.348Z,11.80
2022-09-29T01:44:43.258Z,11.80
2022-09-29T01:47:15.119Z,11.80
2022-09-29T01:49:46.848Z,11.80
2022-09-29T01:52:37.464Z,11.70
2022-09-29T01:55:10.361Z,11.80
2022-09-29T01:57:58.955Z,11.80
2022-09-29T02:00:31.634Z,11.70
2022-09-29T02:03:09.982Z,11.70
2022-09-29T02:05:42.915Z,11.70
2022-09-29T02:08:25.783Z,11.70
2022-09-29T02:11:07.923Z,11.60
2022-09-29T02:13:50.831Z,11.60
2022-09-29T02:16:21.423Z,11.60
2022-09-29T02:19:07.826Z,11.60
2022-09-29T02:21:34.869Z,11.60
2022-09-29T02:24:01.979Z,11.60
2022-09-29T02:26:37.286Z,11.60
2022-09-29T02:29:06.512Z,11.70
2022-09-29T02:31:34.121Z,11.70
2022-09-29T02:34:03.315Z,11.70
2022-09-29T02:36:52.154Z,11.70
2022-09-29T02:39:39.022Z,11.70
2022-09-29T02:42:25.064Z,11.70
2022-09-29T02:45:28.853Z,11.70
2022-09-29T02:48:21.668Z,11.70
2022-09-29T02:50:57.576Z,11.70
2022-09-29T02:53:42.822Z,11.70
2022-09-29T02:56:25.691Z,11.70
2022-09-29T02:59:16.835Z,11.70
2022-09-29T03:01:49.762Z,11.70
2022-09-29T03:04:16.818Z,11.80
2022-09-29T03:06:43.802Z,11.80
2022-09-29T03:09:11.225Z,11.70
2022-09-29T03:11:38.163Z,11.70
2022-09-29T03:14:06.728Z,11.70
2022-09-29T03:16:35.427Z,11.70
2022-09-29T03:19:02.512Z,11.70
2022-09-29T03:21:29.686Z,11.70
2022-09-29T03:23:57.847Z,11.70
2022-09-29T03:26:25.103Z,11.70
2022-09-29T03:28:52.395Z,11.70
2022-09-29T03:31:19.824Z,11.70
2022-09-29T03:33:46.943Z,11.80
2022-09-29T03:36:14.097Z,11.70
2022-09-29T03:38:41.053Z,11.80
2022-09-29T03:41:08.194Z,11.70
2022-09-29T03:43:35.117Z,11.70
2022-09-29T03:46:02.249Z,11.70
2022-09-29T03:48:31.368Z,11.70
2022-09-29T03:50:59.126Z,11.70
2022-09-29T03:53:26.058Z,11.70
2022-09-29T03:55:52.968Z,11.70
2022-09-29T03:58:19.914Z,11.70
2022-09-29T04:00:49.256Z,11.70
2022-09-29T04:03:16.325Z,11.70
2022-09-29T04:05:45.583Z,11.70
2022-09-29T04:08:12.909Z,11.70
2022-09-29T04:10:40.509Z,11.70
2022-09-29T04:13:08.202Z,11.70
2022-09-29T04:15:35.463Z,11.70
2022-09-29T04:18:02.467Z,11.70
2022-09-29T04:20:29.423Z,11.70
2022-09-29T04:22:56.398Z,11.70
2022-09-29T04:25:23.382Z,11.70
2022-09-29T04:27:50.639Z,11.70
2022-09-29T04:30:18.606Z,11.70
2022-09-29T04:32:45.564Z,11.70
2022-09-29T04:35:12.611Z,11.70
2022-09-29T04:37:39.490Z,11.60
2022-09-29T04:40:07.142Z,11.70
2022-09-29T04:42:34.387Z,11.70
2022-09-29T04:45:01.400Z,11.60
2022-09-29T04:47:28.496Z,11.60
2022-09-29T04:49:55.411Z,11.60
2022-09-29T04:52:22.295Z,11.70
2022-09-29T04:54:49.184Z,11.70
2022-09-29T04:57:16.102Z,11.60
2022-09-29T04:59:42.972Z,11.60
2022-09-29T05:02:10.111Z,11.60
2022-09-29T05:04:37.279Z,11.60
2022-09-29T05:07:04.219Z,11.60
2022-09-29T05:09:33.628Z,11.70
2022-09-29T05:12:01.715Z,11.60
2022-09-29T05:14:28.653Z,11.70
2022-09-29T05:16:55.992Z,11.60
2022-09-29T05:19:23.074Z,11.60
2022-09-29T05:21:50.103Z,11.60
2022-09-29T05:24:17.246Z,11.60
2022-09-29T05:26:44.132Z,11.60
2022-09-29T05:29:11.074Z,11.50
2022-09-29T05:31:38.091Z,11.50
2022-09-29T05:34:05.091Z,11.50
2022-09-29T05:36:32.056Z,11.50
2022-09-29T05:38:59.130Z,11.50
2022-09-29T05:41:26.165Z,11.50
2022-09-29T05:43:55.156Z,11.50
2022-09-29T05:46:22.888Z,11.50
2022-09-29T05:48:53.851Z,11.50
2022-09-29T05:51:23.883Z,11.50
2022-09-29T05:53:52.174Z,11.60
2022-09-29T05:56:25.247Z,11.50
2022-09-29T05:58:53.067Z,11.50
2022-09-29T06:01:23.048Z,11.50
2022-09-29T06:03:51.479Z,11.50
2022-09-29T06:06:24.340Z,11.50
2022-09-29T06:08:52.432Z,11.50
2022-09-29T06:11:22.873Z,11.50
2022-09-29T06:13:51.676Z,11.50
2022-09-29T06:16:21.448Z,11.40
2022-09-29T06:18:49.250Z,11.40
2022-09-29T06:21:19.377Z,11.30
2022-09-29T06:23:46.423Z,11.30
2022-09-29T06:26:18.021Z,11.30
2022-09-29T06:28:47.880Z,11.30
2022-09-29T06:31:20.720Z,11.20
2022-09-29T06:33:47.830Z,11.20
2022-09-29T06:36:43.271Z,11.20
2022-09-29T06:39:12.257Z,11.20
2022-09-29T06:41:39.343Z,11.10
2022-09-29T06:44:06.269Z,11.10
2022-09-29T06:46:33.484Z,11.10
2022-09-29T06:49:00.386Z,11.10
2022-09-29T06:51:38.834Z,11.10
2022-09-29T06:54:11.927Z,11.20
2022-09-29T06:56:40.134Z,11.30
2022-09-29T06:59:07.890Z,11.30
2022-09-29T07:01:35.112Z,11.30
2022-09-29T07:04:02.535Z,11.40
2022-09-29T07:06:30.776Z,11.40
2022-09-29T07:08:59.186Z,11.40
2022-09-29T07:11:26.558Z,11.50
2022-09-29T07:13:54.943Z,11.50
2022-09-29T07:16:25.637Z,11.50
2022-09-29T07:18:53.088Z,11.50
2022-09-29T07:21:22.108Z,11.60
2022-09-29T07:23:49.437Z,11.60
2022-09-29T07:26:17.853Z,11.70
2022-09-29T07:28:46.966Z,11.80
2022-09-29T07:31:16.466Z,11.80
2022-09-29T07:33:48.294Z,11.80
2022-09-29T07:36:17.518Z,11.70
2022-09-29T07:38:49.074Z,11.70
2022-09-29T07:41:17.031Z,11.70
2022-09-29T07:43:43.997Z,11.80
2022-09-29T07:46:11.184Z,11.80
2022-09-29T07:48:38.911Z,11.90
2022-09-29T07:51:14.759Z,11.90
2022-09-29T07:53:42.690Z,12.00
2022-09-29T07:56:11.001Z,12.00
2022-09-29T07:58:38.967Z,12.00
2022-09-29T08:01:10.631Z,12.00
2022-09-29T08:03:39.439Z,12.10
2022-09-29T08:06:07.534Z,12.20
2022-09-29T08:08:39.167Z,12.30
2022-09-29T08:11:20.768Z,12.50
2022-09-29T08:13:53.566Z,12.50
2022-09-29T08:16:21.165Z,12.60
2022-09-29T08:18:48.154Z,12.80
2022-09-29T08:21:15.792Z,12.90
2022-09-29T08:23:43.839Z,13.30
2022-09-29T08:26:14.319Z,13.60
2022-09-29T08:28:41.758Z,13.80
2022-09-29T08:31:14.980Z,13.80
2022-09-29T08:33:41.851Z,13.80
2022-09-29T08:36:15.190Z,13.80
2022-09-29T08:38:43.366Z,13.90
2022-09-29T08:41:20.136Z,13.90
2022-09-29T08:43:51.014Z,13.90
2022-09-29T08:46:41.060Z,14.10
2022-09-29T08:49:28.612Z,14.50
2022-09-29T08:52:15.396Z,14.80
2022-09-29T08:54:49.051Z,15.00
2022-09-29T08:57:19.067Z,15.20
2022-09-29T08:59:55.165Z,15.50
2022-09-29T09:02:22.152Z,15.70
2022-09-29T09:05:04.244Z,15.70
2022-09-29T09:07:53.279Z,15.90
2022-09-29T09:10:34.740Z,16.10
2022-09-29T09:13:04.704Z,16.20
2022-09-29T09:16:04.991Z,16.20
2022-09-29T09:18:38.372Z,16.40
2022-09-29T09:21:09.747Z,16.50
2022-09-29T09:23:36.564Z,16.70
2022-09-29T09:26:04.990Z,17.00
2022-09-29T09:28:52.149Z,17.30
2022-09-29T09:31:28.129Z,17.50
2022-09-29T09:34:19.246Z,17.60
2022-09-29T09:37:06.048Z,17.40
2022-09-29T09:39:44.805Z,17.20
2022-09-29T09:42:23.463Z,17.00
2022-09-29T09:44:54.341Z,17.10
2022-09-29T09:47:31.174Z,17.10
2022-09-29T09:50:01.448Z,17.00
2022-09-29T09:52:43.458Z,17.40
2022-09-29T09:55:22.193Z,17.50
2022-09-29T09:57:58.123Z,17.40
2022-09-29T10:00:35.215Z,17.10
2022-09-29T10:03:05.669Z,16.90
2022-09-29T10:05:39.607Z,16.70
2022-09-29T10:08:13.028Z,16.50
2022-09-29T10:10:51.333Z,16.30
2022-09-29T10:13:30.755Z,16.10
2022-09-29T10:16:20.587Z,16.00
2022-09-29T10:18:52.731Z,15.80
2022-09-29T10:21:26.374Z,15.80
2022-09-29T10:23:55.725Z,15.70
2022-09-29T10:26:29.626Z,15.70
2022-09-29T10:29:02.777Z,15.70
2022-09-29T10:31:32.671Z,16.20
2022-09-29T10:34:21.550Z,16.70
2022-09-29T10:37:05.014Z,17.10
2022-09-29T10:39:45.848Z,17.60
2022-09-29T10:42:37.075Z,17.40
2022-09-29T10:45:20.113Z,17.10
2022-09-29T10:48:13.599Z,17.00
2022-09-29T10:50:58.069Z,16.70
2022-09-29T10:53:41.767Z,16.50
2022-09-29T10:56:22.551Z,16.40
2022-09-29T10:59:04.453Z,16.30
2022-09-29T11:01:42.458Z,16.10
2022-09-29T11:04:19.467Z,16.10
2022-09-29T11:06:47.214Z,16.00
2022-09-29T11:09:15.620Z,15.90
2022-09-29T11:11:48.423Z,15.80
2022-09-29T11:14:30.141Z,15.80
2022-09-29T11:17:00.099Z,15.80
2022-09-29T11:19:30.029Z,15.90
2022-09-29T11:22:21.256Z,16.10
2022-09-29T11:25:16.460Z,16.20
2022-09-29T11:28:07.572Z,16.50
2022-09-29T11:30:37.441Z,16.60
2022-09-29T11:33:15.128Z,16.70
2022-09-29T11:35:54.501Z,17.00
2022-09-29T11:38:50.526Z,17.40
2022-09-29T11:41:20.325Z,18.30
2022-09-29T11:47:01.751Z,19.50
2022-09-29T11:49:38.590Z,19.60
2022-09-29T11:52:29.684Z,19.80
2022-09-29T11:55:15.199Z,20.00
2022-09-29T11:57:57.054Z,20.30
2022-09-29T12:01:02.119Z,20.60
2022-09-29T12:04:11.433Z,20.70
2022-09-29T12:07:14.663Z,20.40
2022-09-29T12:10:10.166Z,20.00
2022-09-29T12:12:57.340Z,19.90
2022-09-29T12:15:38.704Z,19.90
2022-09-29T12:18:27.782Z,20.00
2022-09-29T12:20:56.446Z,19.90
2022-09-29T12:23:26.336Z,19.90
2022-09-29T12:26:04.894Z,20.10
2022-09-29T12:28:56.124Z,20.40
2022-09-29T12:31:37.274Z,20.70
2022-09-29T12:34:19.191Z,20.90
2022-09-29T12:37:05.920Z,20.90
2022-09-29T12:39:59.585Z,21.10
2022-09-29T12:42:41.013Z,21.40
2022-09-29T12:45:34.265Z,21.50
2022-09-29T12:48:29.175Z,21.20
2022-09-29T12:51:41.098Z,21.10
2022-09-29T12:54:32.903Z,21.60
2022-09-29T12:57:06.106Z,21.80
2022-09-29T12:59:58.858Z,21.90
2022-09-29T13:02:29.399Z,21.90
2022-09-29T13:05:21.640Z,22.60
2022-09-29T13:08:17.089Z,22.80
2022-09-29T13:11:18.421Z,22.60
2022-09-29T13:14:04.537Z,22.10
2022-09-29T13:16:52.004Z,21.80
2022-09-29T13:19:58.483Z,21.60
2022-09-29T13:22:53.587Z,21.70
2022-09-29T13:25:41.434Z,21.80
2022-09-29T13:28:57.843Z,21.90
2022-09-29T13:31:33.210Z,21.60
2022-09-29T13:34:03.168Z,21.90
2022-09-29T13:36:45.265Z,21.90
2022-09-29T13:39:25.044Z,21.70
2022-09-29T13:41:56.034Z,21.40
2022-09-29T13:44:28.246Z,21.10
2022-09-29T13:46:56.498Z,20.80
2022-09-29T13:49:29.264Z,20.50
2022-09-29T13:52:12.757Z,20.20
2022-09-29T13:54:41.809Z,20.10
2022-09-29T13:57:28.065Z,20.10
2022-09-29T13:59:55.256Z,20.50
2022-09-29T14:02:45.566Z,20.80
2022-09-29T14:05:24.876Z,21.00
2022-09-29T14:07:55.093Z,21.20
2022-09-29T14:10:37.346Z,21.40
2022-09-29T14:13:20.581Z,21.50
2022-09-29T14:15:56.166Z,21.70
2022-09-29T14:18:44.889Z,22.00
2022-09-29T14:21:14.736Z,22.00
2022-09-29T14:23:52.834Z,22.10
2022-09-29T14:26:43.253Z,22.00
2022-09-29T14:29:23.960Z,22.20
2022-09-29T14:31:58.492Z,22.50
2022-09-29T14:34:31.036Z,22.70
2022-09-29T14:36:59.871Z,22.60
2022-09-29T14:39:29.155Z,22.80
2022-09-29T14:41:56.658Z,23.00
2022-09-29T14:44:48.976Z,22.70
2022-09-29T14:48:19.714Z,22.80
2022-09-29T14:51:34.479Z,22.90
2022-09-29T14:54:07.268Z,22.80
2022-09-29T14:57:07.037Z,22.60
2022-09-29T14:59:57.116Z,22.80
2022-09-29T15:02:29.072Z,22.80
2022-09-29T15:04:56.263Z,22.90
2022-09-29T15:07:26.237Z,23.10
2022-09-29T15:09:58.352Z,22.80
2022-09-29T15:12:31.729Z,22.80
2022-09-29T15:15:00.364Z,22.90
2022-09-29T15:17:29.335Z,22.90
2022-09-29T15:20:08.230Z,22.90
2022-09-29T15:22:53.379Z,22.80
2022-09-29T15:25:39.550Z,22.80
2022-09-29T15:28:27.899Z,22.70
2022-09-29T15:31:07.169Z,22.40
2022-09-29T15:33:41.139Z,22.30
2022-09-29T15:36:20.376Z,22.40
2022-09-29T15:38:51.012Z,22.50
2022-09-29T15:41:20.362Z,22.50
2022-09-29T15:44:01.707Z,22.40
2022-09-29T15:46:48.862Z,22.10
2022-09-29T15:49:24.058Z,22.10
2022-09-29T15:52:00.343Z,21.90
2022-09-29T15:57:23.659Z,21.30
2022-09-29T15:59:55.470Z,20.90
2022-09-29T16:02:36.716Z,20.60
2022-09-29T16:05:07.450Z,20.20
2022-09-29T16:07:38.471Z,20.00
2022-09-29T16:10:17.013Z,19.90
2022-09-29T16:12:56.637Z,19.60
2022-09-29T16:20:47.811Z,19.20
2022-09-29T16:23:21.867Z,19.00
2022-09-29T16:26:38.470Z,18.80
2022-09-29T16:29:11.775Z,18.70
2022-09-29T16:31:40.882Z,18.30
2022-09-29T16:34:32.029Z,18.20
2022-09-29T16:37:19.848Z,18.00
2022-09-29T16:39:49.214Z,17.80
2022-09-29T16:42:27.256Z,17.50
2022-09-29T16:44:56.094Z,17.30
2022-09-29T16:47:30.298Z,17.20
2022-09-29T16:50:18.104Z,17.00
2022-09-29T16:52:50.207Z,16.80
2022-09-29T16:55:28.232Z,16.70
2022-09-29T16:58:05.047Z,16.60
2022-09-29T17:00:32.492Z,16.50
2022-09-29T17:02:59.511Z,16.30
2022-09-29T17:05:27.474Z,16.20
2022-09-29T17:08:02.959Z,16.10
2022-09-29T17:10:30.807Z,16.00
2022-09-29T17:12:58.160Z,15.90
2022-09-29T17:15:26.096Z,15.70
2022-09-29T17:17:53.139Z,15.70
2022-09-29T17:20:29.887Z,15.50
2022-09-29T17:22:59.947Z,15.40
2022-09-29T17:25:27.283Z,15.30
2022-09-29T17:28:12.869Z,15.30
2022-09-29T17:30:41.542Z,15.20
2022-09-29T17:33:12.203Z,15.00
2022-09-29T17:35:41.294Z,15.00
2022-09-29T17:38:09.488Z,14.80
2022-09-29T17:41:16.448Z,14.70
2022-09-29T17:43:46.569Z,14.70
2022-09-29T17:46:17.075Z,14.50
2022-09-29T17:48:44.151Z,14.40
2022-09-29T17:51:14.638Z,14.30
2022-09-29T17:53:41.712Z,14.20
2022-09-29T17:56:21.888Z,14.10
2022-09-29T17:58:53.759Z,14.00
2022-09-29T18:01:22.991Z,13.90
2022-09-29T18:03:51.126Z,13.90
2022-09-29T18:06:22.747Z,13.80
2022-09-29T18:08:53.975Z,13.60
2022-09-29T18:11:23.463Z,13.60
2022-09-29T18:13:50.730Z,13.50
2022-09-29T18:16:20.951Z,13.50
2022-09-29T18:18:48.586Z,13.50
2022-09-29T18:21:20.411Z,13.40
2022-09-29T18:23:47.692Z,13.40
2022-09-29T18:26:15.060Z,13.40
2022-09-29T18:28:44.813Z,13.40
2022-09-29T18:31:24.766Z,13.40
2022-09-29T18:33:52.174Z,13.40
2022-09-29T18:36:19.324Z,13.30
2022-09-29T18:38:46.420Z,13.40
2022-09-29T18:41:16.750Z,13.40
2022-09-29T18:43:43.650Z,13.40
2022-09-29T18:46:11.635Z,13.40
2022-09-29T18:48:38.588Z,13.30
2022-09-29T18:51:05.668Z,13.30
2022-09-29T18:53:33.636Z,13.30
2022-09-29T18:56:03.526Z,13.30
2022-09-29T18:58:30.825Z,13.30
2022-09-29T19:00:58.896Z,13.30
2022-09-29T19:03:27.788Z,13.40
2022-09-29T19:05:56.032Z,13.40
2022-09-29T19:08:23.423Z,13.20
2022-09-29T19:10:55.845Z,13.30
2022-09-29T19:13:23.260Z,13.20
2022-09-29T19:15:50.661Z,13.30
2022-09-29T19:18:23.382Z,13.30
2022-09-29T19:20:58.502Z,13.30
2022-09-29T19:23:27.220Z,13.20
2022-09-29T19:25:58.526Z,13.20
2022-09-29T19:28:27.306Z,13.10
2022-09-29T19:30:56.009Z,13.10
2022-09-29T19:33:23.403Z,13.00
2022-09-29T19:35:54.643Z,13.00
2022-09-29T19:38:22.512Z,13.00
2022-09-29T19:40:51.577Z,13.00
2022-09-29T19:43:21.512Z,13.00
2022-09-29T19:45:49.418Z,12.90
2022-09-29T19:48:21.798Z,12.90
2022-09-29T19:51:14.657Z,12.90
2022-09-29T19:53:44.533Z,12.90
2022-09-29T19:56:16.667Z,12.90
2022-09-29T19:58:43.672Z,12.90
2022-09-29T20:01:11.756Z,12.80
2022-09-29T20:03:38.875Z,12.80
2022-09-29T20:06:06.873Z,12.80
2022-09-29T20:08:34.739Z,12.80
2022-09-29T20:11:10.383Z,12.70
2022-09-29T20:13:37.545Z,12.70
2022-09-29T20:16:05.965Z,12.70
2022-09-29T20:18:37.497Z,12.70
2022-09-29T20:21:15.087Z,12.50
2022-09-29T20:23:42.082Z,12.50
2022-09-29T20:26:09.187Z,12.40
2022-09-29T20:28:37.067Z,12.40
2022-09-29T20:31:06.175Z,12.30
2022-09-29T20:33:34.223Z,12.20
2022-09-29T20:36:05.344Z,12.10
2022-09-29T20:52:59.163Z,12.20
2022-09-29T21:16:41.849Z,12.00
2022-09-29T21:19:12.603Z,12.00
2022-09-29T21:21:41.090Z,12.00
2022-09-29T21:24:09.142Z,12.10
2022-09-29T21:26:36.808Z,11.90
2022-09-29T21:29:04.354Z,11.90
2022-09-29T21:31:33.430Z,11.90
2022-09-29T21:34:05.595Z,12.00
2022-09-29T21:36:35.389Z,12.00
2022-09-29T21:39:08.330Z,11.90
2022-09-29T21:41:41.159Z,11.90
2022-09-29T21:44:24.249Z,11.90
2022-09-29T21:46:51.775Z,11.90
2022-09-29T21:49:19.554Z,11.90
2022-09-29T21:51:51.101Z,11.90
2022-09-29T21:54:23.648Z,11.90
2022-09-29T21:56:51.954Z,11.90
2022-09-29T21:59:21.605Z,11.90
2022-09-29T22:01:49.141Z,11.80
2022-09-29T22:04:16.505Z,11.80
2022-09-29T22:06:44.971Z,11.80
2022-09-29T22:09:17.022Z,11.80
2022-09-29T22:11:44.286Z,11.80
2022-09-29T22:14:13.397Z,11.80
2022-09-29T22:16:40.722Z,11.80
2022-09-29T22:19:24.688Z,11.80
2022-09-29T22:21:53.433Z,11.80
2022-09-29T22:24:20.530Z,11.80
2022-09-29T22:26:47.520Z,11.80
2022-09-29T22:29:14.510Z,11.80
2022-09-29T22:31:41.575Z,11.80
2022-09-29T22:34:11.190Z,11.80
2022-09-29T22:36:38.363Z,11.80
2022-09-29T22:39:06.575Z,11.70
2022-09-29T22:41:36.627Z,11.70
2022-09-29T22:44:04.031Z,11.60
2022-09-29T22:46:32.041Z,11.60
2022-09-29T22:48:59.533Z,11.60
2022-09-29T22:51:26.705Z,11.60
2022-09-29T22:53:53.656Z,11.60
2022-09-29T22:56:28.073Z,11.60
2022-09-29T22:58:56.639Z,11.60
2022-09-29T23:01:24.171Z,11.60
2022-09-29T23:03:51.253Z,11.60
2022-09-29T23:06:18.226Z,11.60
2022-09-29T23:08:45.156Z,11.60
2022-09-29T23:11:19.836Z,11.60
2022-09-29T23:13:47.400Z,11.50
2022-09-29T23:16:16.163Z,11.50
2022-09-29T23:18:45.567Z,11.60
2022-09-29T23:21:14.983Z,11.60
2022-09-29T23:23:42.079Z,11.60
2022-09-29T23:26:09.117Z,11.60
2022-09-29T23:28:36.419Z,11.60
2022-09-29T23:31:05.658Z,11.60
2022-09-29T23:33:32.990Z,11.60
2022-09-29T23:36:14.223Z,11.60
2022-09-29T23:39:01.905Z,11.50
2022-09-29T23:41:30.266Z,11.50
2022-09-29T23:43:59.696Z,11.50
2022-09-29T23:46:31.685Z,11.50
2022-09-29T23:48:59.743Z,11.50
2022-09-29T23:51:27.936Z,11.50
2022-09-29T23:53:54.832Z,11.50
2022-09-29T23:56:21.767Z,11.50
2022-09-29T23:58:48.780Z,11.50
